Time;durP1;ratioP1;P1;durP2;ratioP2;P2;SDS_P1;SDS_P2;PMS_P1;PMS_P2;Temp;Humidity;BMP_temperature;BMP_pressure;BME280_temperature;BME280_humidity;BME280_pressure;Samples;Min_cycle;Max_cycle;Signal;HPM_P1;HPM_P2
2022/12/28 00:01:41;;;;;;;0.20;0.20;;;;;;;7.83;75.07;101529.22;5099333;28;20546;-79
2022/12/28 00:04:08;;;;;;;0.52;0.52;;;;;;;7.86;74.90;101522.19;5102845;28;20092;-79
2022/12/28 00:06:34;;;;;;;0.10;0.10;;;;;;;7.86;75.27;101508.09;5101859;28;20027;-79
2022/12/28 00:09:01;;;;;;;0.20;0.20;;;;;;;7.88;75.24;101495.81;5099834;28;20107;-79
2022/12/28 00:11:28;;;;;;;0.20;0.20;;;;;;;7.85;75.09;101487.88;5099649;28;20397;-79
2022/12/28 00:13:55;;;;;;;0.10;0.10;;;;;;;7.91;75.32;101482.59;5098811;28;20028;-78
2022/12/28 00:19:05;;;;;;;0.10;0.10;;;;;;;7.85;75.49;101485.22;5095472;28;20612;-80
2022/12/28 00:21:33;;;;;;;0.20;0.20;;;;;;;7.89;75.22;101460.63;5097468;28;20028;-80
2022/12/28 00:24:00;;;;;;;0.20;0.20;;;;;;;7.80;75.59;101465.88;5095808;28;20039;-80
2022/12/28 00:26:29;;;;;;;0.10;0.10;;;;;;;7.90;75.15;101449.16;5095340;28;20024;-80
2022/12/28 00:28:55;;;;;;;0.10;0.10;;;;;;;7.92;75.29;101443.03;5095203;28;20039;-80
2022/12/28 00:31:21;;;;;;;0.10;0.10;;;;;;;7.98;74.74;101444.78;5095881;28;20489;-80
2022/12/28 00:33:47;;;;;;;0.10;0.10;;;;;;;7.97;74.82;101437.75;5104536;28;20031;-80
2022/12/28 00:36:15;;;;;;;0.20;0.20;;;;;;;8.02;74.77;101428.06;5106840;28;20020;-80
2022/12/28 00:38:41;;;;;;;0.50;0.50;;;;;;;8.09;74.49;101429.84;5103542;28;20031;-80
2022/12/28 00:41:09;;;;;;;1.25;1.23;;;;;;;8.04;74.58;101422.81;5098396;28;20032;-78
2022/12/28 00:43:35;;;;;;;0.10;0.10;;;;;;;8.00;74.98;101437.75;5094805;28;20025;-80
2022/12/28 00:46:02;;;;;;;0.30;0.30;;;;;;;8.07;74.52;101434.25;5094805;28;20036;-80
2022/12/28 00:48:28;;;;;;;0.10;0.10;;;;;;;8.14;74.52;101428.94;5095783;28;20089;-80
2022/12/28 00:51:16;;;;;;;0.30;0.30;;;;;;;8.19;74.58;101412.22;5095341;28;20035;-80
2022/12/28 00:53:42;;;;;;;0.28;0.28;;;;;;;8.17;74.24;101413.97;5103892;28;20024;-79
2022/12/28 00:56:12;;;;;;;0.15;0.15;;;;;;;8.18;74.66;101388.50;5106258;28;20088;-79
2022/12/28 00:58:38;;;;;;;0.40;0.40;;;;;;;8.17;74.54;101392.88;5097349;28;20124;-80
2022/12/28 01:01:10;;;;;;;1.52;1.50;;;;;;;8.24;74.25;101391.13;5095052;28;20063;-78
2022/12/28 01:03:36;;;;;;;0.77;0.77;;;;;;;8.33;73.85;101392.84;5092834;28;20025;-78
2022/12/28 01:06:06;;;;;;;0.10;0.10;;;;;;;8.30;73.66;101388.47;5103286;28;20080;-80
2022/12/28 01:08:34;;;;;;;0.10;0.10;;;;;;;8.29;74.13;101375.25;5102886;28;20028;-80
2022/12/28 01:11:07;;;;;;;1.08;1.00;;;;;;;8.39;74.05;101361.16;5094925;28;20135;-78
2022/12/28 01:13:33;;;;;;;0.40;0.40;;;;;;;8.39;73.68;101372.59;5092707;28;20398;-78
2022/12/28 01:15:59;;;;;;;0.43;0.43;;;;;;;8.38;73.37;101368.19;5093377;28;20108;-80
2022/12/28 01:18:26;;;;;;;0.20;0.20;;;;;;;8.41;73.66;101359.38;5092538;28;20027;-78
2022/12/28 01:20:52;;;;;;;0.20;0.20;;;;;;;8.42;73.58;101372.59;5091995;28;20417;-78
2022/12/28 01:23:18;;;;;;;0.75;0.75;;;;;;;8.46;73.71;101364.66;5091532;28;20509;-78
2022/12/28 01:25:44;;;;;;;2.25;0.70;;;;;;;8.43;73.03;101361.13;5090630;28;20035;-78
2022/12/28 01:28:10;;;;;;;0.20;0.20;;;;;;;8.53;72.89;101363.78;5090146;28;20525;-78
2022/12/28 01:30:36;;;;;;;0.57;0.50;;;;;;;8.55;72.85;101367.31;5076311;28;20077;-78
2022/12/28 01:33:02;;;;;;;0.85;0.85;;;;;;;8.52;72.66;101352.38;5077509;28;20050;-78
2022/12/28 01:35:28;;;;;;;1.05;1.05;;;;;;;8.55;72.65;101354.13;5077315;28;20107;-78
2022/12/28 01:37:56;;;;;;;0.30;0.30;;;;;;;8.55;73.01;101346.19;5077561;28;20035;-78
2022/12/28 01:40:22;;;;;;;0.10;0.10;;;;;;;8.50;73.46;101340.00;5076849;28;20036;-77
2022/12/28 01:42:48;;;;;;;0.47;0.47;;;;;;;8.45;73.21;101344.41;5079749;28;20066;-80
2022/12/28 01:45:18;;;;;;;0.10;0.10;;;;;;;8.55;72.98;101344.41;5078579;28;20223;-78
2022/12/28 01:47:46;;;;;;;0.10;0.10;;;;;;;8.53;73.19;101332.97;5079344;28;20047;-77
2022/12/28 01:50:17;;;;;;;0.10;0.10;;;;;;;8.54;73.36;101329.44;5079011;28;20024;-78
2022/12/28 01:52:57;;;;;;;0.10;0.10;;;;;;;8.47;73.41;101321.56;5081452;28;20028;-78
2022/12/28 01:55:29;;;;;;;0.13;0.13;;;;;;;8.47;73.66;101318.91;5079844;28;20028;-78
2022/12/28 01:58:02;;;;;;;0.35;0.35;;;;;;;8.49;74.08;101309.22;5079690;28;20478;-79
2022/12/28 02:00:28;;;;;;;0.60;0.60;;;;;;;8.46;74.21;101299.56;5082216;28;20098;-79
2022/12/28 02:03:14;;;;;;;0.00;0.00;;;;;;;8.50;74.26;101292.47;5082455;28;20059;-79
2022/12/28 02:05:47;;;;;;;0.30;0.30;;;;;;;8.47;74.21;101305.72;5085971;28;20024;-79
2022/12/28 02:11:07;;;;;;;0.47;0.47;;;;;;;8.51;73.97;101276.66;5111206;27;20406;-78
2022/12/28 02:13:34;;;;;;;0.20;0.20;;;;;;;8.47;74.56;101269.59;5080396;28;20039;-79
2022/12/28 02:16:00;;;;;;;0.10;0.10;;;;;;;8.55;74.35;101285.44;5078809;28;20029;-79
2022/12/28 02:18:27;;;;;;;0.20;0.20;;;;;;;8.59;73.96;101289.81;5075703;28;20036;-79
2022/12/28 02:34:26;;;;;;;1.05;0.40;;;;;;;8.68;74.39;101249.25;5074098;28;20371;-83
2022/12/28 02:37:00;;;;;;;1.10;1.10;;;;;;;8.72;74.19;101248.34;5074296;28;20427;-83
2022/12/28 02:39:36;;;;;;;0.10;0.10;;;;;;;8.78;73.78;101242.16;5073128;28;20381;-83
2022/12/28 02:42:04;;;;;;;0.25;0.25;;;;;;;8.76;73.92;101238.66;5073919;28;20036;-83
2022/12/28 02:50:05;;;;;;;0.10;0.10;;;;;;;8.78;74.33;101226.31;5073047;28;20386;-83
2022/12/28 02:53:03;;;;;;;0.10;0.10;;;;;;;8.80;74.40;101250.94;5074035;28;20043;-83
2022/12/28 02:56:18;;;;;;;0.15;0.15;;;;;;;8.92;74.29;101235.00;5081224;28;20032;-82
2022/12/28 03:01:35;;;;;;;3.22;1.77;;;;;;;8.97;74.37;101225.31;5103564;27;1882968;-79
2022/12/28 03:12:37;;;;;;;0.20;0.20;;;;;;;9.12;74.10;101231.34;5122590;27;20384;-78
2022/12/28 03:15:14;;;;;;;0.20;0.20;;;;;;;9.11;74.38;101225.19;5123167;28;20106;-78
2022/12/28 03:31:45;;;;;;;0.20;0.20;;;;;;;9.27;74.50;101215.38;5099872;28;20089;-78
2022/12/28 03:34:13;;;;;;;0.13;0.13;;;;;;;9.31;74.34;101217.09;5099854;28;20497;-79
2022/12/28 03:45:08;;;;;;;0.10;0.10;;;;;;;9.35;74.32;101197.66;5115217;28;20059;-79
2022/12/28 03:47:36;;;;;;;0.10;0.10;;;;;;;9.29;74.70;101187.13;5114780;28;20063;-79
2022/12/28 03:50:03;;;;;;;0.40;0.40;;;;;;;9.28;74.80;101201.25;5113666;28;20084;-79
2022/12/28 03:52:31;;;;;;;0.70;0.28;;;;;;;9.25;74.94;101205.72;5113509;28;20024;-79
2022/12/28 03:54:58;;;;;;;0.63;0.63;;;;;;;9.32;74.91;101203.00;5113660;28;20490;-79
2022/12/28 03:57:24;;;;;;;0.40;0.40;;;;;;;9.31;74.70;101177.44;5113814;28;20039;-79
2022/12/28 03:59:50;;;;;;;0.25;0.25;;;;;;;9.43;74.43;101194.06;5112865;28;20031;-79
2022/12/28 04:02:16;;;;;;;1.50;1.48;;;;;;;9.44;74.52;101179.97;5113762;28;20020;-79
2022/12/28 04:04:42;;;;;;;0.13;0.13;;;;;;;9.38;74.49;101192.38;5113729;28;20631;-79
2022/12/28 04:07:08;;;;;;;0.28;0.28;;;;;;;9.51;74.40;101186.97;5114371;28;20027;-79
2022/12/28 04:09:34;;;;;;;0.80;0.80;;;;;;;9.43;74.77;101192.28;5113643;28;20257;-79
2022/12/28 04:12:00;;;;;;;0.50;0.50;;;;;;;9.54;74.56;101165.75;5113456;28;20440;-78
2022/12/28 04:14:27;;;;;;;0.20;0.20;;;;;;;9.43;75.19;101189.66;5113433;28;20509;-79
2022/12/28 04:16:53;;;;;;;0.30;0.30;;;;;;;9.48;75.03;101171.09;5113146;28;20092;-78
2022/12/28 04:19:19;;;;;;;0.10;0.10;;;;;;;9.53;74.75;101172.81;5112332;27;20085;-79
2022/12/28 04:21:45;;;;;;;0.10;0.10;;;;;;;9.53;74.91;101171.91;5112501;28;20049;-78
2022/12/28 04:24:11;;;;;;;0.20;0.20;;;;;;;9.49;75.38;101164.91;5113062;28;20077;-78
2022/12/28 04:26:37;;;;;;;0.25;0.25;;;;;;;9.48;75.71;101160.50;5112801;28;20073;-78
2022/12/28 04:29:03;;;;;;;0.60;0.60;;;;;;;9.53;75.67;101175.47;5112980;28;20039;-79
2022/12/28 04:31:30;;;;;;;0.10;0.10;;;;;;;9.47;76.02;101162.31;5112832;28;20028;-78
2022/12/28 04:33:57;;;;;;;0.77;0.77;;;;;;;9.50;75.98;101164.03;5112938;28;20205;-78
2022/12/28 04:36:24;;;;;;;0.10;0.10;;;;;;;9.52;75.77;101147.25;5112551;28;20028;-81
2022/12/28 04:38:51;;;;;;;0.73;0.73;;;;;;;9.44;76.54;101153.53;5112058;28;20106;-78
2022/12/28 04:41:17;;;;;;;9.95;1.13;;;;;;;9.45;76.51;101150.84;5112499;28;20028;-79
2022/12/28 04:43:43;;;;;;;0.15;0.15;;;;;;;9.42;76.57;101147.34;5113256;28;20043;-78
2022/12/28 04:46:13;;;;;;;0.22;0.22;;;;;;;9.44;76.58;101148.22;5112714;28;20047;-79
2022/12/28 04:48:39;;;;;;;0.65;0.65;;;;;;;9.47;76.46;101132.31;5110649;28;20020;-79
2022/12/28 04:51:08;;;;;;;0.10;0.10;;;;;;;9.54;76.30;101149.88;5114734;28;20061;-78
2022/12/28 04:53:37;;;;;;;0.10;0.10;;;;;;;9.48;76.63;101136.72;5100385;28;20389;-78
2022/12/28 04:56:05;;;;;;;0.85;0.85;;;;;;;9.51;76.54;101144.63;5103332;28;20030;-77
2022/12/28 04:58:31;;;;;;;0.10;0.10;;;;;;;9.52;76.51;101146.34;5102296;28;20035;-77
2022/12/28 05:01:07;;;;;;;0.10;0.10;;;;;;;9.63;76.52;101138.31;5101520;28;20031;-79
2022/12/28 05:03:33;;;;;;;0.10;0.10;;;;;;;9.59;76.34;101136.59;5099867;28;20036;-79
2022/12/28 05:06:01;;;;;;;0.20;0.20;;;;;;;9.60;76.25;101133.94;5101562;28;20240;-79
2022/12/28 05:08:29;;;;;;;0.10;0.10;;;;;;;9.61;76.25;101137.44;5107691;28;20114;-78
2022/12/28 05:11:00;;;;;;;0.20;0.20;;;;;;;9.60;76.55;101122.50;5105408;28;20035;-79
2022/12/28 05:13:26;;;;;;;0.10;0.10;;;;;;;9.75;76.01;101116.13;5099706;28;20028;-79
2022/12/28 05:15:52;;;;;;;0.10;0.10;;;;;;;9.78;75.98;101113.44;5102407;28;20065;-79
2022/12/28 05:18:18;;;;;;;0.65;0.57;;;;;;;9.74;76.22;101115.25;5102635;28;20083;-79
2022/12/28 05:20:44;;;;;;;0.15;0.15;;;;;;;9.76;76.35;101116.13;5099141;28;20121;-79
2022/12/28 05:23:10;;;;;;;0.10;0.10;;;;;;;9.68;76.89;101113.56;5098884;28;20102;-79
2022/12/28 05:25:36;;;;;;;0.20;0.20;;;;;;;9.76;76.70;101108.19;5098195;28;20038;-79
2022/12/28 05:28:02;;;;;;;0.10;0.10;;;;;;;9.55;77.73;101119.88;5098175;28;20139;-80
2022/12/28 05:30:28;;;;;;;0.15;0.15;;;;;;;9.52;77.93;101133.13;5097649;28;20031;-79
2022/12/28 05:32:54;;;;;;;0.10;0.10;;;;;;;9.61;77.64;101103.94;5098298;28;20028;-79
2022/12/28 05:35:20;;;;;;;0.13;0.13;;;;;;;9.49;78.05;101112.88;5097283;28;20469;-79
2022/12/28 05:37:47;;;;;;;0.40;0.40;;;;;;;9.49;78.06;101109.38;5098713;28;20032;-79
2022/12/28 05:40:13;;;;;;;0.20;0.20;;;;;;;9.55;78.02;101127.81;5098340;28;20028;-79
2022/12/28 05:42:39;;;;;;;8.10;2.35;;;;;;;9.70;77.46;101122.34;5098533;28;20097;-79
2022/12/28 05:45:05;;;;;;;0.10;0.10;;;;;;;9.84;76.80;101108.06;5098419;28;20024;-79
2022/12/28 05:47:31;;;;;;;0.10;0.10;;;;;;;9.82;76.78;101108.09;5100287;28;20085;-79
2022/12/28 05:49:57;;;;;;;0.10;0.10;;;;;;;9.84;76.48;101131.91;5099473;28;20032;-80
2022/12/28 05:52:23;;;;;;;0.20;0.20;;;;;;;9.87;76.54;101111.56;5098265;28;20024;-81
2022/12/28 05:54:49;;;;;;;0.10;0.10;;;;;;;9.82;76.56;101112.50;5097768;28;20039;-78
2022/12/28 05:57:15;;;;;;;0.77;0.68;;;;;;;9.93;76.35;101126.50;5097953;28;20032;-81
2022/12/28 05:59:42;;;;;;;0.20;0.20;;;;;;;10.00;76.14;101106.97;5097566;28;20043;-78
2022/12/28 06:02:08;;;;;;;0.20;0.20;;;;;;;10.02;75.84;101099.03;5097571;28;20039;-80
2022/12/28 06:04:34;;;;;;;0.17;0.17;;;;;;;10.04;75.70;101106.06;5097121;28;20028;-80
2022/12/28 06:07:00;;;;;;;0.10;0.10;;;;;;;10.09;75.76;101094.50;5098340;28;20032;-80
2022/12/28 06:09:26;;;;;;;0.85;0.85;;;;;;;10.12;75.47;101082.13;5100726;28;20102;-79
2022/12/28 06:11:52;;;;;;;0.43;0.38;;;;;;;10.20;75.26;101097.88;5111651;28;20092;-80
2022/12/28 06:14:19;;;;;;;0.10;0.10;;;;;;;10.17;75.46;101095.28;5102277;28;20028;-80
2022/12/28 06:16:45;;;;;;;0.20;0.20;;;;;;;10.12;75.82;101094.47;5101271;28;20490;-80
2022/12/28 06:19:14;;;;;;;0.10;0.10;;;;;;;10.17;75.52;101072.31;5099637;28;20467;-80
2022/12/28 06:21:40;;;;;;;0.10;0.10;;;;;;;10.27;75.39;101083.66;5098377;28;20017;-81
2022/12/28 06:24:07;;;;;;;0.10;0.10;;;;;;;10.19;75.89;101086.44;5098945;28;20047;-81
2022/12/28 06:26:35;;;;;;;0.10;0.10;;;;;;;10.26;75.39;101076.59;5097267;28;20056;-78
2022/12/28 06:29:02;;;;;;;0.10;0.10;;;;;;;10.17;75.95;101092.66;5096315;28;20081;-79
2022/12/28 06:31:37;;;;;;;0.20;0.20;;;;;;;10.19;76.08;101089.06;5097874;28;20024;-79
2022/12/28 06:34:06;;;;;;;0.10;0.10;;;;;;;10.24;75.75;101066.94;5097461;28;20133;-79
2022/12/28 06:36:35;;;;;;;0.10;0.10;;;;;;;10.13;76.29;101102.41;5097903;28;20111;-79
2022/12/28 06:39:03;;;;;;;0.35;0.35;;;;;;;10.10;76.21;101080.38;5103086;28;20100;-79
2022/12/28 06:41:29;;;;;;;0.10;0.10;;;;;;;10.16;75.87;101083.81;5107955;28;20046;-79
2022/12/28 06:43:56;;;;;;;0.10;0.10;;;;;;;10.18;76.25;101083.78;5103786;28;20124;-80
2022/12/28 06:46:24;;;;;;;0.10;0.10;;;;;;;10.12;76.31;101089.16;5100932;28;20039;-79
2022/12/28 06:48:51;;;;;;;0.10;0.10;;;;;;;10.19;76.22;101081.13;5098774;28;20047;-79
2022/12/28 06:54:06;;;;;;;0.10;0.10;;;;;;;10.24;75.74;101081.03;5106229;27;20373;-79
2022/12/28 06:56:34;;;;;;;0.10;0.10;;;;;;;10.27;76.13;101081.00;5104938;28;20043;-80
2022/12/28 06:59:01;;;;;;;0.10;0.10;;;;;;;10.26;76.21;101066.03;5094007;28;20074;-80
2022/12/28 07:01:30;;;;;;;0.40;0.40;;;;;;;10.28;75.77;101080.13;5095834;28;20478;-80
2022/12/28 07:03:57;;;;;;;0.17;0.17;;;;;;;10.36;75.49;101070.31;5095120;28;20039;-80
2022/12/28 07:06:26;;;;;;;0.20;0.20;;;;;;;10.31;75.76;101085.34;5094314;28;20035;-80
2022/12/28 07:08:58;;;;;;;0.10;0.10;;;;;;;10.40;75.52;101064.97;5093954;28;20024;-80
2022/12/28 07:11:25;;;;;;;0.10;0.10;;;;;;;10.38;75.48;101053.50;5094028;28;20032;-79
2022/12/28 07:13:51;;;;;;;1.45;1.38;;;;;;;10.35;75.25;101059.69;5093553;28;20116;-79
2022/12/28 07:16:20;;;;;;;0.10;0.10;;;;;;;10.35;75.62;101060.59;5093728;28;20473;-80
2022/12/28 07:18:46;;;;;;;0.10;0.10;;;;;;;10.33;76.02;101059.72;5092762;28;20052;-79
2022/12/28 07:21:16;;;;;;;0.10;0.10;;;;;;;10.32;75.60;101057.97;5093341;28;20036;-81
2022/12/28 07:23:42;;;;;;;0.10;0.10;;;;;;;10.35;75.45;101072.94;5093494;28;20435;-79
2022/12/28 07:28:48;;;;;;;0.10;0.10;;;;;;;10.43;75.03;101067.56;5123410;27;20347;-83
2022/12/28 07:31:17;;;;;;;0.10;0.10;;;;;;;10.33;75.29;101067.69;5121150;28;20042;-83
2022/12/28 07:33:44;;;;;;;0.10;0.10;;;;;;;10.41;75.35;101074.66;5118412;28;20089;-83
2022/12/28 07:36:14;;;;;;;0.10;0.10;;;;;;;10.35;75.59;101094.13;5118279;28;20066;-83
2022/12/28 07:38:40;;;;;;;0.30;0.30;;;;;;;10.43;75.13;101078.16;5117264;27;20049;-83
2022/12/28 07:41:10;;;;;;;0.10;0.10;;;;;;;10.40;75.44;101079.06;5118589;28;20505;-83
2022/12/28 07:43:37;;;;;;;0.20;0.20;;;;;;;10.39;75.62;101076.47;5116868;27;20024;-83
2022/12/28 07:46:09;;;;;;;0.20;0.20;;;;;;;10.37;75.53;101089.72;5116823;28;20514;-83
2022/12/28 07:48:36;;;;;;;;;;;;;;;10.42;75.69;101079.03;5123365;28;20066;-82
2022/12/28 07:51:15;;;;;;;0.10;0.10;;;;;;;10.37;75.80;101089.72;5125123;28;19908;-81
2022/12/28 07:53:44;;;;;;;0.10;0.10;;;;;;;10.46;75.17;101086.94;5122058;28;20051;-83
2022/12/28 07:56:11;;;;;;;0.10;0.10;;;;;;;10.49;74.92;101075.41;5116964;28;20036;-83
2022/12/28 07:58:37;;;;;;;0.25;0.25;;;;;;;10.40;75.58;101078.22;5115598;28;20024;-81
2022/12/28 08:01:06;;;;;;;0.35;0.35;;;;;;;10.42;75.36;101092.28;5116855;28;20099;-83
2022/12/28 08:03:33;;;;;;;0.17;0.17;;;;;;;10.47;75.05;101070.13;5116243;28;20028;-83
2022/12/28 08:06:05;;;;;;;0.35;0.35;;;;;;;10.46;75.28;101068.38;5116687;28;20088;-83
2022/12/28 08:08:34;;;;;;;1.00;1.00;;;;;;;10.53;74.93;101069.19;5123206;28;20024;-82
2022/12/28 08:11:04;;;;;;;0.10;0.10;;;;;;;10.49;74.89;101064.81;5128462;28;20496;-82
2022/12/28 08:13:33;;;;;;;0.30;0.30;;;;;;;10.43;75.32;101068.44;5119959;28;20054;-82
2022/12/28 08:16:00;;;;;;;0.00;0.00;;;;;;;10.49;75.28;101078.94;5117856;28;20032;-82
2022/12/28 08:18:26;;;;;;;1.00;0.85;;;;;;;10.55;74.95;101072.66;5116644;28;20027;-82
2022/12/28 08:20:52;;;;;;;0.10;0.10;;;;;;;10.57;75.03;101065.56;5114882;28;20403;-82
2022/12/28 08:23:18;;;;;;;0.10;0.10;;;;;;;10.57;74.85;101070.00;5115656;28;20101;-82
2022/12/28 08:25:44;;;;;;;0.20;0.20;;;;;;;10.57;74.95;101072.66;5114991;27;20035;-82
2022/12/28 08:28:10;;;;;;;0.10;0.10;;;;;;;10.52;75.08;101083.31;5114841;28;20032;-82
2022/12/28 08:30:36;;;;;;;0.10;0.10;;;;;;;10.54;74.98;101080.63;5114194;28;20038;-82
2022/12/28 08:33:03;;;;;;;0.10;0.10;;;;;;;10.61;74.86;101067.25;5115208;27;20027;-82
2022/12/28 08:35:29;;;;;;;0.10;0.10;;;;;;;10.65;75.07;101063.69;5114830;28;20032;-82
2022/12/28 08:37:55;;;;;;;0.10;0.10;;;;;;;10.61;74.82;101067.25;5114151;28;20413;-83
2022/12/28 08:40:26;;;;;;;0.20;0.20;;;;;;;10.64;74.84;101068.97;5099926;28;20091;-84
2022/12/28 08:42:56;;;;;;;0.10;0.10;;;;;;;10.70;74.48;101070.66;5102161;28;20054;-83
2022/12/28 08:45:22;;;;;;;0.13;0.13;;;;;;;10.58;75.07;101072.63;5102011;28;20499;-83
2022/12/28 08:47:48;;;;;;;0.47;0.47;;;;;;;10.62;75.17;101061.06;5101022;28;20085;-83
2022/12/28 08:50:14;;;;;;;0.85;0.85;;;;;;;10.59;75.03;101058.47;5101011;28;20032;-83
2022/12/28 08:52:40;;;;;;;1.38;0.50;;;;;;;10.62;74.78;101066.38;5103288;28;20036;-82
2022/12/28 08:55:06;;;;;;;0.10;0.10;;;;;;;10.67;74.54;101051.25;5110150;28;20032;-83
2022/12/28 08:57:33;;;;;;;0.10;0.10;;;;;;;10.64;74.36;101063.69;5108771;28;20519;-83
2022/12/28 08:59:59;;;;;;;0.10;0.10;;;;;;;10.58;74.89;101077.91;5101679;28;20089;-83
2022/12/28 09:02:25;;;;;;;0.22;0.22;;;;;;;10.64;75.05;101045.13;5105396;28;20051;-82
2022/12/28 09:04:51;;;;;;;0.10;0.10;;;;;;;10.75;74.64;101052.91;5106553;28;20058;-83
2022/12/28 09:07:17;;;;;;;0.10;0.10;;;;;;;10.72;74.34;101043.25;5103236;28;20035;-83
2022/12/28 09:09:43;;;;;;;0.10;0.10;;;;;;;10.73;74.84;101038.78;5102318;28;20028;-83
2022/12/28 09:12:09;;;;;;;0.20;0.20;;;;;;;10.70;75.06;101049.47;5102446;28;20106;-83
2022/12/28 09:14:35;;;;;;;0.10;0.10;;;;;;;10.70;75.18;101042.38;5102068;28;20028;-83
2022/12/28 09:17:01;;;;;;;0.60;0.60;;;;;;;10.63;74.97;101035.44;5102153;28;20080;-83
2022/12/28 09:19:28;;;;;;;0.10;0.10;;;;;;;10.59;75.51;101037.28;5100863;28;20028;-83
2022/12/28 09:21:54;;;;;;;0.10;0.10;;;;;;;10.63;75.37;101038.06;5099939;28;20061;-83
2022/12/28 09:24:21;;;;;;;29.80;1.55;;;;;;;10.58;75.43;101035.53;5100968;28;20110;-83
2022/12/28 09:26:49;;;;;;;0.10;0.10;;;;;;;10.58;75.35;101056.72;5108615;28;20039;-82
2022/12/28 09:29:15;;;;;;;0.10;0.10;;;;;;;10.52;75.68;101041.78;5110708;28;20024;-83
2022/12/28 09:31:43;;;;;;;0.10;0.10;;;;;;;10.58;75.58;101039.94;5109188;28;20073;-82
2022/12/28 09:34:12;;;;;;;0.10;0.10;;;;;;;10.59;75.63;101041.69;5105204;28;20036;-83
2022/12/28 09:36:40;;;;;;;0.20;0.20;;;;;;;10.60;75.49;101022.25;5102607;28;20054;-82
2022/12/28 09:39:11;;;;;;;0.47;0.47;;;;;;;10.60;75.21;101028.41;5100652;28;20024;-82
2022/12/28 09:44:43;;;;;;;0.10;0.10;;;;;;;10.78;74.18;101036.94;5165280;27;20381;-78
2022/12/28 09:53:20;;;;;;;0.10;0.10;;;;;;;10.86;73.76;101024.44;5075505;28;20393;-79
2022/12/28 09:58:39;;;;;;;0.10;0.10;;;;;;;10.80;73.54;101025.44;5121110;27;1191110;-79
2022/12/28 10:01:11;;;;;;;0.15;0.15;;;;;;;10.90;73.32;101025.25;5135423;27;20497;-79
2022/12/28 10:03:40;;;;;;;0.10;0.10;;;;;;;10.87;73.04;101026.19;5135478;27;20027;-80
2022/12/28 10:06:13;;;;;;;0.10;0.10;;;;;;;10.91;73.20;101025.22;5128494;27;20032;-79
2022/12/28 10:08:45;;;;;;;0.50;0.50;;;;;;;10.91;72.92;101032.31;5114289;28;20094;-79
2022/12/28 10:11:19;;;;;;;0.10;0.10;;;;;;;10.92;72.64;101056.13;5123033;28;20432;-78
2022/12/28 10:13:48;;;;;;;0.10;0.10;;;;;;;10.94;72.55;101025.19;5121305;28;20385;-79
2022/12/28 10:16:18;;;;;;;0.10;0.10;;;;;;;10.94;72.96;101022.53;5115019;28;20035;-79
2022/12/28 10:18:45;;;;;;;0.10;0.10;;;;;;;10.93;73.04;101036.69;5114431;28;20116;-79
2022/12/28 10:21:12;;;;;;;0.15;0.15;;;;;;;10.99;72.76;101019.75;5114685;28;20379;-79
2022/12/28 10:23:39;;;;;;;0.10;0.10;;;;;;;10.98;73.06;101023.34;5115223;28;20024;-80
2022/12/28 10:26:06;;;;;;;0.10;0.10;;;;;;;10.87;73.69;101023.53;5114238;28;20489;-80
2022/12/28 10:28:52;;;;;;;0.30;0.30;;;;;;;10.96;73.87;101020.69;5114207;28;20096;-80
2022/12/28 10:31:33;;;;;;;0.10;0.10;;;;;;;10.87;74.61;101023.53;5115507;28;20039;-80
2022/12/28 10:33:59;;;;;;;0.10;0.10;;;;;;;10.83;74.96;101030.66;5115831;28;20024;-80
2022/12/28 10:36:26;;;;;;;0.13;0.13;;;;;;;10.79;75.20;101034.28;5114731;28;20024;-80
2022/12/28 10:38:56;;;;;;;0.10;0.10;;;;;;;10.73;75.62;101031.75;5114001;28;20039;-80
2022/12/28 10:41:32;;;;;;;0.10;0.10;;;;;;;10.62;76.25;101029.28;5114480;28;20042;-80
2022/12/28 10:43:59;;;;;;;0.10;0.10;;;;;;;10.56;76.58;101021.44;5118104;28;20031;-80
2022/12/28 10:46:25;;;;;;;0.20;0.20;;;;;;;10.58;77.00;101014.34;5124685;28;20038;-80
2022/12/28 10:48:54;;;;;;;0.10;0.10;;;;;;;10.58;76.86;101019.63;5124041;28;20306;-81
2022/12/28 10:51:22;;;;;;;0.50;0.50;;;;;;;10.52;77.32;101017.09;5119340;28;20023;-80
2022/12/28 10:53:54;;;;;;;0.10;0.10;;;;;;;10.50;77.90;101026.81;5118184;28;20031;-80
2022/12/28 10:56:29;;;;;;;0.52;0.52;;;;;;;10.57;77.30;101004.63;5118534;28;20032;-80
2022/12/28 11:01:47;;;;;;;0.10;0.10;;;;;;;10.45;77.63;100994.25;5077453;28;20395;-80
2022/12/28 11:04:23;;;;;;;0.10;0.10;;;;;;;10.48;77.54;100992.41;5077545;28;20116;-79
2022/12/28 11:09:29;;;;;;;0.10;0.10;;;;;;;10.51;77.43;100980.91;5132488;27;20140;-80
2022/12/28 11:12:16;;;;;;;0.10;0.10;;;;;;;10.38;78.03;100988.19;5098769;28;20042;-80
2022/12/28 11:14:43;;;;;;;0.10;0.10;;;;;;;10.46;78.19;100972.16;5099399;28;20501;-80
2022/12/28 11:20:08;;;;;;;0.10;0.10;;;;;;;10.31;79.24;100974.13;5104858;27;1902881;-80
2022/12/28 11:22:34;;;;;;;0.30;0.30;;;;;;;10.33;78.67;100964.38;5136182;28;20106;-80
2022/12/28 11:25:01;;;;;;;0.10;0.10;;;;;;;10.33;79.17;100974.09;5136938;28;20480;-81
2022/12/28 11:27:28;;;;;;;0.20;0.20;;;;;;;10.38;78.45;100959.06;5117909;28;20027;-80
2022/12/28 11:29:55;;;;;;;0.10;0.10;;;;;;;10.27;78.88;100956.53;5119786;28;20042;-80
2022/12/28 11:32:26;;;;;;;0.10;0.10;;;;;;;10.30;78.73;100960.91;5125149;28;20024;-80
2022/12/28 11:34:54;;;;;;;0.30;0.30;;;;;;;10.24;79.38;100971.59;5122784;28;20028;-80
2022/12/28 11:37:20;;;;;;;0.10;0.10;;;;;;;10.25;79.34;100966.28;5118140;28;20492;-80
2022/12/28 11:39:50;;;;;;;0.10;0.10;;;;;;;10.24;79.27;100967.16;5114304;28;20242;-80
2022/12/28 11:47:46;;;;;;;1.20;1.20;;;;;;;10.27;78.76;100945.97;5073236;28;20139;-80
2022/12/28 11:53:42;;;;;;;0.10;0.10;;;;;;;10.28;79.05;100950.34;5072652;28;20389;-81
2022/12/28 11:56:11;;;;;;;0.10;0.10;;;;;;;10.31;78.56;100946.78;5072171;28;20502;-81
2022/12/28 12:04:17;;;;;;;0.15;0.15;;;;;;;10.29;78.94;100941.50;5112647;27;20380;-80
2022/12/28 12:12:00;;;;;;;0.10;0.10;;;;;;;10.29;78.68;100912.38;5072371;28;20888;-80
2022/12/28 12:14:46;;;;;;;0.17;0.17;;;;;;;10.34;78.88;100915.81;5071399;28;20037;-80
2022/12/28 12:17:20;;;;;;;0.10;0.10;;;;;;;10.38;78.52;100906.09;5071812;28;20070;-80
2022/12/28 12:19:52;;;;;;;0.10;0.10;;;;;;;10.34;78.91;100894.63;5071069;28;20029;-80
2022/12/28 12:22:28;;;;;;;0.10;0.10;;;;;;;10.38;78.87;100903.44;5071441;28;20441;-80
2022/12/28 12:27:47;;;;;;;0.10;0.10;;;;;;;10.37;78.83;100888.44;5114058;27;20711;-82
2022/12/28 12:30:17;;;;;;;0.10;0.10;;;;;;;10.38;78.75;100884.91;5111886;28;20032;-82
2022/12/28 12:35:23;;;;;;;0.10;0.10;;;;;;;10.41;78.31;100873.38;5113373;27;20506;-80
2022/12/28 12:40:57;;;;;;;0.10;0.10;;;;;;;10.49;78.13;100877.63;5074318;28;20914;-82
2022/12/28 12:43:33;;;;;;;0.10;0.10;;;;;;;10.50;78.26;100858.16;5075609;28;20092;-82
2022/12/28 12:49:16;;;;;;;0.10;0.10;;;;;;;10.51;78.23;100851.94;5120992;27;20383;-78
2022/12/28 12:57:22;;;;;;;0.10;0.10;;;;;;;10.55;77.82;100822.75;5120053;27;20388;-80
2022/12/28 13:00:13;;;;;;;0.10;0.10;;;;;;;10.55;77.92;100818.31;5117537;28;20031;-80
2022/12/28 13:03:02;;;;;;;0.20;0.20;;;;;;;10.60;77.62;100811.16;5116984;28;20052;-80
2022/12/28 13:05:30;;;;;;;0.20;0.20;;;;;;;10.53;77.91;100814.84;5117239;28;20016;-80
2022/12/28 13:07:59;;;;;;;0.10;0.10;;;;;;;10.55;77.25;100807.72;5117288;28;20038;-80
2022/12/28 13:10:30;;;;;;;0.10;0.10;;;;;;;10.55;77.56;100788.31;5115717;28;20027;-80
2022/12/28 13:12:59;;;;;;;0.20;0.20;;;;;;;10.59;77.33;100772.34;5116915;28;20566;-80
2022/12/28 13:15:25;;;;;;;0.10;0.10;;;;;;;10.62;77.12;100769.59;5116531;28;20032;-80
2022/12/28 13:18:16;;;;;;;0.88;0.88;;;;;;;10.68;76.90;100766.81;5115715;28;20048;-79
2022/12/28 13:20:53;;;;;;;0.45;0.40;;;;;;;10.73;77.03;100769.38;5114576;28;20028;-80
2022/12/28 13:23:22;;;;;;;0.10;0.10;;;;;;;10.71;76.73;100741.19;5115602;28;20031;-80
2022/12/28 13:25:51;;;;;;;0.10;0.10;;;;;;;10.75;76.78;100750.78;5115403;28;20028;-79
2022/12/28 13:28:21;;;;;;;0.10;0.10;;;;;;;10.78;75.81;100734.81;5115009;28;20103;-80
2022/12/28 13:30:59;;;;;;;0.10;0.10;;;;;;;10.78;76.03;100734.81;5114245;28;20035;-79
2022/12/28 13:33:25;;;;;;;0.10;0.10;;;;;;;10.86;75.65;100724.91;5114113;28;20378;-79
2022/12/28 13:36:09;;;;;;;0.10;0.10;;;;;;;10.94;75.53;100716.78;5113816;28;20106;-78
2022/12/28 13:38:35;;;;;;;1.65;1.27;;;;;;;10.96;75.87;100713.19;5112491;28;20035;-78